sensor_id;sensor_type;location;lat;lon;timestamp;P1;durP1;ratioP1;P2;durP2;ratioP2
27293;SDS011;14785;52.556;13.430;2024-02-26T00:02:18;37.80;;;28.97;;
27293;SDS011;14785;52.556;13.430;2024-02-26T00:04:43;38.73;;;32.97;;
27293;SDS011;14785;52.556;13.430;2024-02-26T00:07:09;91.47;;;84.37;;
27293;SDS011;14785;52.556;13.430;2024-02-26T00:09:34;115.73;;;107.43;;
27293;SDS011;14785;52.556;13.430;2024-02-26T00:12:03;108.78;;;101.25;;
27293;SDS011;14785;52.556;13.430;2024-02-26T00:14:30;110.90;;;103.38;;
27293;SDS011;14785;52.556;13.430;2024-02-26T00:16:55;71.47;;;65.72;;
27293;SDS011;14785;52.556;13.430;2024-02-26T00:19:21;126.30;;;117.90;;
27293;SDS011;14785;52.556;13.430;2024-02-26T00:21:46;42.17;;;38.27;;
27293;SDS011;14785;52.556;13.430;2024-02-26T00:24:12;58.83;;;53.67;;
27293;SDS011;14785;52.556;13.430;2024-02-26T00:26:37;41.50;;;37.43;;
27293;SDS011;14785;52.556;13.430;2024-02-26T00:29:03;44.40;;;40.00;;
27293;SDS011;14785;52.556;13.430;2024-02-26T00:31:28;66.73;;;60.97;;
27293;SDS011;14785;52.556;13.430;2024-02-26T00:33:53;43.00;;;38.03;;
27293;SDS011;14785;52.556;13.430;2024-02-26T00:36:19;150.23;;;140.63;;
27293;SDS011;14785;52.556;13.430;2024-02-26T00:38:44;91.50;;;85.10;;
27293;SDS011;14785;52.556;13.430;2024-02-26T00:41:15;66.35;;;61.28;;
27293;SDS011;14785;52.556;13.430;2024-02-26T00:43:41;78.73;;;72.73;;
27293;SDS011;14785;52.556;13.430;2024-02-26T00:46:07;258.17;;;242.95;;
27293;SDS011;14785;52.556;13.430;2024-02-26T00:48:33;110.43;;;102.27;;
27293;SDS011;14785;52.556;13.430;2024-02-26T00:50:58;405.63;;;383.20;;
27293;SDS011;14785;52.556;13.430;2024-02-26T00:53:24;166.90;;;156.90;;
27293;SDS011;14785;52.556;13.430;2024-02-26T00:55:50;204.88;;;192.75;;
27293;SDS011;14785;52.556;13.430;2024-02-26T00:58:15;175.70;;;165.38;;
27293;SDS011;14785;52.556;13.430;2024-02-26T01:00:41;168.27;;;157.93;;
27293;SDS011;14785;52.556;13.430;2024-02-26T01:03:07;182.17;;;171.23;;
27293;SDS011;14785;52.556;13.430;2024-02-26T01:05:32;250.37;;;236.43;;
27293;SDS011;14785;52.556;13.430;2024-02-26T01:07:58;263.92;;;249.23;;
27293;SDS011;14785;52.556;13.430;2024-02-26T01:10:23;239.30;;;225.47;;
27293;SDS011;14785;52.556;13.430;2024-02-26T01:12:49;264.33;;;248.97;;
27293;SDS011;14785;52.556;13.430;2024-02-26T01:15:14;342.37;;;323.67;;
27293;SDS011;14785;52.556;13.430;2024-02-26T01:17:40;472.43;;;446.87;;
27293;SDS011;14785;52.556;13.430;2024-02-26T01:20:05;426.10;;;401.87;;
27293;SDS011;14785;52.556;13.430;2024-02-26T01:22:31;296.02;;;277.75;;
27293;SDS011;14785;52.556;13.430;2024-02-26T01:24:56;320.17;;;301.57;;
27293;SDS011;14785;52.556;13.430;2024-02-26T01:27:22;241.90;;;227.90;;
27293;SDS011;14785;52.556;13.430;2024-02-26T01:29:51;186.13;;;174.75;;
27293;SDS011;14785;52.556;13.430;2024-02-26T01:32:17;290.23;;;272.90;;
27293;SDS011;14785;52.556;13.430;2024-02-26T01:34:43;205.38;;;193.02;;
27293;SDS011;14785;52.556;13.430;2024-02-26T01:37:09;288.30;;;271.30;;
27293;SDS011;14785;52.556;13.430;2024-02-26T01:39:36;157.05;;;147.55;;
27293;SDS011;14785;52.556;13.430;2024-02-26T01:42:03;104.63;;;97.97;;
27293;SDS011;14785;52.556;13.430;2024-02-26T01:44:29;113.97;;;106.85;;
27293;SDS011;14785;52.556;13.430;2024-02-26T01:46:55;138.50;;;129.67;;
27293;SDS011;14785;52.556;13.430;2024-02-26T01:49:20;156.30;;;146.47;;
27293;SDS011;14785;52.556;13.430;2024-02-26T01:51:47;144.05;;;135.23;;
27293;SDS011;14785;52.556;13.430;2024-02-26T01:54:14;139.07;;;130.25;;
27293;SDS011;14785;52.556;13.430;2024-02-26T01:56:40;292.67;;;274.98;;
27293;SDS011;14785;52.556;13.430;2024-02-26T01:59:06;117.15;;;109.20;;
27293;SDS011;14785;52.556;13.430;2024-02-26T02:01:34;91.65;;;84.63;;
27293;SDS011;14785;52.556;13.430;2024-02-26T02:04:00;95.03;;;88.50;;
27293;SDS011;14785;52.556;13.430;2024-02-26T02:06:26;71.53;;;66.03;;
27293;SDS011;14785;52.556;13.430;2024-02-26T02:08:56;93.80;;;87.43;;
27293;SDS011;14785;52.556;13.430;2024-02-26T02:11:21;133.60;;;125.35;;
27293;SDS011;14785;52.556;13.430;2024-02-26T02:13:47;78.22;;;72.80;;
27293;SDS011;14785;52.556;13.430;2024-02-26T02:16:13;94.40;;;88.03;;
27293;SDS011;14785;52.556;13.430;2024-02-26T02:18:38;135.35;;;126.72;;
27293;SDS011;14785;52.556;13.430;2024-02-26T02:21:04;68.17;;;63.30;;
27293;SDS011;14785;52.556;13.430;2024-02-26T02:23:29;79.57;;;73.97;;
27293;SDS011;14785;52.556;13.430;2024-02-26T02:25:55;109.63;;;102.77;;
27293;SDS011;14785;52.556;13.430;2024-02-26T02:28:22;134.57;;;126.15;;
27293;SDS011;14785;52.556;13.430;2024-02-26T02:30:50;81.60;;;76.05;;
27293;SDS011;14785;52.556;13.430;2024-02-26T02:33:15;111.10;;;104.40;;
27293;SDS011;14785;52.556;13.430;2024-02-26T02:35:42;117.00;;;109.28;;
27293;SDS011;14785;52.556;13.430;2024-02-26T02:38:08;117.80;;;110.68;;
27293;SDS011;14785;52.556;13.430;2024-02-26T02:40:33;83.00;;;77.37;;
27293;SDS011;14785;52.556;13.430;2024-02-26T02:42:59;88.97;;;82.97;;
27293;SDS011;14785;52.556;13.430;2024-02-26T02:45:25;115.38;;;108.13;;
27293;SDS011;14785;52.556;13.430;2024-02-26T02:47:50;100.43;;;93.07;;
27293;SDS011;14785;52.556;13.430;2024-02-26T02:50:16;179.30;;;168.57;;
27293;SDS011;14785;52.556;13.430;2024-02-26T02:52:41;124.73;;;117.00;;
27293;SDS011;14785;52.556;13.430;2024-02-26T02:55:06;158.17;;;149.07;;
27293;SDS011;14785;52.556;13.430;2024-02-26T02:57:32;157.00;;;147.95;;
27293;SDS011;14785;52.556;13.430;2024-02-26T02:59:59;130.88;;;123.28;;
27293;SDS011;14785;52.556;13.430;2024-02-26T03:02:25;90.90;;;84.97;;
27293;SDS011;14785;52.556;13.430;2024-02-26T03:04:52;168.93;;;159.50;;
27293;SDS011;14785;52.556;13.430;2024-02-26T03:07:17;124.25;;;116.90;;
27293;SDS011;14785;52.556;13.430;2024-02-26T03:09:42;142.30;;;133.67;;
27293;SDS011;14785;52.556;13.430;2024-02-26T03:12:08;98.77;;;92.53;;
27293;SDS011;14785;52.556;13.430;2024-02-26T03:14:33;113.80;;;106.73;;
27293;SDS011;14785;52.556;13.430;2024-02-26T03:16:59;114.43;;;107.33;;
27293;SDS011;14785;52.556;13.430;2024-02-26T03:19:24;103.97;;;97.33;;
27293;SDS011;14785;52.556;13.430;2024-02-26T03:21:49;127.30;;;119.37;;
27293;SDS011;14785;52.556;13.430;2024-02-26T03:24:15;164.13;;;155.20;;
27293;SDS011;14785;52.556;13.430;2024-02-26T03:26:40;141.30;;;132.93;;
27293;SDS011;14785;52.556;13.430;2024-02-26T03:29:06;115.57;;;109.00;;
27293;SDS011;14785;52.556;13.430;2024-02-26T03:31:31;88.37;;;82.77;;
27293;SDS011;14785;52.556;13.430;2024-02-26T03:33:56;129.23;;;121.73;;
27293;SDS011;14785;52.556;13.430;2024-02-26T03:36:23;115.57;;;108.35;;
27293;SDS011;14785;52.556;13.430;2024-02-26T03:38:49;103.40;;;96.90;;
27293;SDS011;14785;52.556;13.430;2024-02-26T03:41:15;125.17;;;117.63;;
27293;SDS011;14785;52.556;13.430;2024-02-26T03:43:42;102.18;;;96.20;;
27293;SDS011;14785;52.556;13.430;2024-02-26T03:46:08;104.40;;;97.90;;
27293;SDS011;14785;52.556;13.430;2024-02-26T03:48:36;91.22;;;85.38;;
27293;SDS011;14785;52.556;13.430;2024-02-26T03:51:01;109.73;;;102.93;;
27293;SDS011;14785;52.556;13.430;2024-02-26T03:53:27;93.43;;;87.50;;
27293;SDS011;14785;52.556;13.430;2024-02-26T03:55:53;91.07;;;85.63;;
27293;SDS011;14785;52.556;13.430;2024-02-26T03:58:20;90.13;;;84.40;;
27293;SDS011;14785;52.556;13.430;2024-02-26T04:00:46;77.88;;;72.88;;
27293;SDS011;14785;52.556;13.430;2024-02-26T04:03:12;79.03;;;73.95;;
27293;SDS011;14785;52.556;13.430;2024-02-26T04:05:38;136.80;;;128.77;;
27293;SDS011;14785;52.556;13.430;2024-02-26T04:08:04;112.80;;;106.03;;
27293;SDS011;14785;52.556;13.430;2024-02-26T04:10:32;75.78;;;71.13;;
27293;SDS011;14785;52.556;13.430;2024-02-26T04:12:57;98.87;;;92.70;;
27293;SDS011;14785;52.556;13.430;2024-02-26T04:15:22;80.30;;;75.17;;
27293;SDS011;14785;52.556;13.430;2024-02-26T04:20:15;124.82;;;117.25;;
27293;SDS011;14785;52.556;13.430;2024-02-26T04:22:43;95.10;;;89.38;;
27293;SDS011;14785;52.556;13.430;2024-02-26T04:25:09;107.57;;;101.03;;
27293;SDS011;14785;52.556;13.430;2024-02-26T04:27:36;78.75;;;73.85;;
27293;SDS011;14785;52.556;13.430;2024-02-26T04:30:02;201.70;;;190.53;;
27293;SDS011;14785;52.556;13.430;2024-02-26T04:32:29;125.88;;;118.18;;
27293;SDS011;14785;52.556;13.430;2024-02-26T04:34:57;141.45;;;132.90;;
27293;SDS011;14785;52.556;13.430;2024-02-26T04:37:22;137.37;;;129.30;;
27293;SDS011;14785;52.556;13.430;2024-02-26T04:42:14;112.03;;;105.23;;
27293;SDS011;14785;52.556;13.430;2024-02-26T04:44:39;216.43;;;204.40;;
27293;SDS011;14785;52.556;13.430;2024-02-26T04:47:05;123.73;;;116.63;;
27293;SDS011;14785;52.556;13.430;2024-02-26T04:49:31;159.70;;;150.37;;
27293;SDS011;14785;52.556;13.430;2024-02-26T04:51:57;129.15;;;121.55;;
27293;SDS011;14785;52.556;13.430;2024-02-26T04:54:22;173.30;;;162.97;;
27293;SDS011;14785;52.556;13.430;2024-02-26T04:56:47;304.27;;;287.60;;
27293;SDS011;14785;52.556;13.430;2024-02-26T04:59:14;136.95;;;129.00;;
27293;SDS011;14785;52.556;13.430;2024-02-26T05:01:40;136.02;;;127.93;;
27293;SDS011;14785;52.556;13.430;2024-02-26T05:04:07;130.02;;;122.15;;
27293;SDS011;14785;52.556;13.430;2024-02-26T05:06:32;103.93;;;97.55;;
27293;SDS011;14785;52.556;13.430;2024-02-26T05:08:59;108.60;;;101.67;;
27293;SDS011;14785;52.556;13.430;2024-02-26T05:11:24;123.03;;;115.60;;
27293;SDS011;14785;52.556;13.430;2024-02-26T05:13:50;108.13;;;101.23;;
27293;SDS011;14785;52.556;13.430;2024-02-26T05:16:15;180.10;;;169.17;;
27293;SDS011;14785;52.556;13.430;2024-02-26T05:18:41;108.87;;;102.37;;
27293;SDS011;14785;52.556;13.430;2024-02-26T05:21:07;118.93;;;111.65;;
27293;SDS011;14785;52.556;13.430;2024-02-26T05:23:32;115.97;;;108.63;;
27293;SDS011;14785;52.556;13.430;2024-02-26T05:25:58;112.35;;;105.28;;
27293;SDS011;14785;52.556;13.430;2024-02-26T05:28:23;81.23;;;75.87;;
27293;SDS011;14785;52.556;13.430;2024-02-26T05:30:49;90.68;;;84.38;;
27293;SDS011;14785;52.556;13.430;2024-02-26T05:33:14;87.30;;;80.47;;
27293;SDS011;14785;52.556;13.430;2024-02-26T05:35:40;66.88;;;62.08;;
27293;SDS011;14785;52.556;13.430;2024-02-26T05:38:06;94.67;;;88.53;;
27293;SDS011;14785;52.556;13.430;2024-02-26T05:40:33;93.28;;;87.32;;
27293;SDS011;14785;52.556;13.430;2024-02-26T05:42:59;81.18;;;75.85;;
27293;SDS011;14785;52.556;13.430;2024-02-26T05:45:25;91.60;;;85.47;;
27293;SDS011;14785;52.556;13.430;2024-02-26T05:47:51;97.63;;;91.18;;
27293;SDS011;14785;52.556;13.430;2024-02-26T05:50:16;145.03;;;136.10;;
27293;SDS011;14785;52.556;13.430;2024-02-26T05:52:43;114.70;;;107.05;;
27293;SDS011;14785;52.556;13.430;2024-02-26T05:55:08;142.63;;;133.70;;
27293;SDS011;14785;52.556;13.430;2024-02-26T05:57:34;123.23;;;115.50;;
27293;SDS011;14785;52.556;13.430;2024-02-26T06:00:00;161.57;;;151.80;;
27293;SDS011;14785;52.556;13.430;2024-02-26T06:02:30;141.95;;;133.05;;
27293;SDS011;14785;52.556;13.430;2024-02-26T06:04:57;152.82;;;143.38;;
27293;SDS011;14785;52.556;13.430;2024-02-26T06:07:23;119.07;;;111.97;;
27293;SDS011;14785;52.556;13.430;2024-02-26T06:09:49;116.85;;;109.72;;
27293;SDS011;14785;52.556;13.430;2024-02-26T06:12:14;164.47;;;154.10;;
27293;SDS011;14785;52.556;13.430;2024-02-26T06:14:40;113.07;;;105.13;;
27293;SDS011;14785;52.556;13.430;2024-02-26T06:17:09;94.55;;;87.85;;
27293;SDS011;14785;52.556;13.430;2024-02-26T06:19:36;128.77;;;119.93;;
27293;SDS011;14785;52.556;13.430;2024-02-26T06:22:01;188.00;;;175.67;;
27293;SDS011;14785;52.556;13.430;2024-02-26T06:24:27;198.95;;;186.65;;
27293;SDS011;14785;52.556;13.430;2024-02-26T06:26:52;311.57;;;295.00;;
27293;SDS011;14785;52.556;13.430;2024-02-26T06:29:18;276.07;;;260.63;;
27293;SDS011;14785;52.556;13.430;2024-02-26T06:31:43;245.10;;;231.60;;
27293;SDS011;14785;52.556;13.430;2024-02-26T06:34:08;368.20;;;348.43;;
27293;SDS011;14785;52.556;13.430;2024-02-26T06:36:35;288.27;;;271.77;;
27293;SDS011;14785;52.556;13.430;2024-02-26T06:39:01;301.10;;;283.90;;
27293;SDS011;14785;52.556;13.430;2024-02-26T06:41:27;180.60;;;168.67;;
27293;SDS011;14785;52.556;13.430;2024-02-26T06:43:55;117.90;;;108.80;;
27293;SDS011;14785;52.556;13.430;2024-02-26T06:46:20;181.20;;;169.90;;
27293;SDS011;14785;52.556;13.430;2024-02-26T06:48:47;447.88;;;424.88;;
27293;SDS011;14785;52.556;13.430;2024-02-26T06:51:13;309.17;;;291.55;;
27293;SDS011;14785;52.556;13.430;2024-02-26T06:53:38;258.57;;;243.60;;
27293;SDS011;14785;52.556;13.430;2024-02-26T06:56:04;338.43;;;320.33;;
27293;SDS011;14785;52.556;13.430;2024-02-26T06:58:30;196.82;;;185.20;;
27293;SDS011;14785;52.556;13.430;2024-02-26T07:03:23;120.43;;;112.53;;
27293;SDS011;14785;52.556;13.430;2024-02-26T07:05:50;87.82;;;81.22;;
27293;SDS011;14785;52.556;13.430;2024-02-26T07:08:19;76.88;;;70.93;;
27293;SDS011;14785;52.556;13.430;2024-02-26T07:13:11;91.03;;;84.75;;
27293;SDS011;14785;52.556;13.430;2024-02-26T07:15:37;70.30;;;64.90;;
27293;SDS011;14785;52.556;13.430;2024-02-26T07:18:02;103.55;;;95.93;;
27293;SDS011;14785;52.556;13.430;2024-02-26T07:20:29;86.57;;;79.57;;
27293;SDS011;14785;52.556;13.430;2024-02-26T07:22:55;104.25;;;96.43;;
27293;SDS011;14785;52.556;13.430;2024-02-26T07:25:20;164.27;;;152.35;;
27293;SDS011;14785;52.556;13.430;2024-02-26T07:27:46;107.73;;;100.47;;
27293;SDS011;14785;52.556;13.430;2024-02-26T07:30:11;92.07;;;85.13;;
27293;SDS011;14785;52.556;13.430;2024-02-26T07:32:41;158.60;;;147.80;;
27293;SDS011;14785;52.556;13.430;2024-02-26T07:35:07;93.82;;;86.80;;
27293;SDS011;14785;52.556;13.430;2024-02-26T07:37:32;122.47;;;113.27;;
27293;SDS011;14785;52.556;13.430;2024-02-26T07:39:58;109.53;;;101.33;;
27293;SDS011;14785;52.556;13.430;2024-02-26T07:42:23;101.65;;;93.97;;
27293;SDS011;14785;52.556;13.430;2024-02-26T07:44:50;103.60;;;95.97;;
27293;SDS011;14785;52.556;13.430;2024-02-26T07:47:17;122.63;;;114.10;;
27293;SDS011;14785;52.556;13.430;2024-02-26T07:49:43;84.53;;;77.47;;
27293;SDS011;14785;52.556;13.430;2024-02-26T07:52:08;67.03;;;61.77;;
27293;SDS011;14785;52.556;13.430;2024-02-26T07:54:34;71.63;;;65.13;;
27293;SDS011;14785;52.556;13.430;2024-02-26T07:56:59;71.23;;;64.87;;
27293;SDS011;14785;52.556;13.430;2024-02-26T07:59:24;65.10;;;59.30;;
27293;SDS011;14785;52.556;13.430;2024-02-26T08:01:53;70.57;;;64.80;;
27293;SDS011;14785;52.556;13.430;2024-02-26T08:04:18;55.70;;;50.10;;
27293;SDS011;14785;52.556;13.430;2024-02-26T08:06:44;54.77;;;49.93;;
27293;SDS011;14785;52.556;13.430;2024-02-26T08:09:09;71.60;;;65.87;;
27293;SDS011;14785;52.556;13.430;2024-02-26T08:11:34;99.57;;;92.27;;
27293;SDS011;14785;52.556;13.430;2024-02-26T08:14:00;79.67;;;73.47;;
27293;SDS011;14785;52.556;13.430;2024-02-26T08:16:26;77.07;;;70.85;;
27293;SDS011;14785;52.556;13.430;2024-02-26T08:18:53;59.42;;;53.80;;
27293;SDS011;14785;52.556;13.430;2024-02-26T08:21:18;52.80;;;48.13;;
27293;SDS011;14785;52.556;13.430;2024-02-26T08:23:44;52.33;;;46.87;;
27293;SDS011;14785;52.556;13.430;2024-02-26T08:26:09;36.70;;;33.33;;
27293;SDS011;14785;52.556;13.430;2024-02-26T08:28:39;45.15;;;40.83;;
27293;SDS011;14785;52.556;13.430;2024-02-26T08:31:05;52.97;;;48.13;;
27293;SDS011;14785;52.556;13.430;2024-02-26T08:33:31;49.20;;;44.30;;
27293;SDS011;14785;52.556;13.430;2024-02-26T08:35:59;52.85;;;47.80;;
27293;SDS011;14785;52.556;13.430;2024-02-26T08:38:24;37.93;;;30.70;;
27293;SDS011;14785;52.556;13.430;2024-02-26T08:40:49;36.80;;;32.37;;
27293;SDS011;14785;52.556;13.430;2024-02-26T08:43:15;37.33;;;31.23;;
27293;SDS011;14785;52.556;13.430;2024-02-26T08:45:40;39.03;;;32.87;;
27293;SDS011;14785;52.556;13.430;2024-02-26T08:48:06;41.20;;;34.70;;
27293;SDS011;14785;52.556;13.430;2024-02-26T08:50:32;37.97;;;31.88;;
27293;SDS011;14785;52.556;13.430;2024-02-26T08:52:58;38.83;;;32.13;;
27293;SDS011;14785;52.556;13.430;2024-02-26T08:55:23;35.85;;;30.23;;
27293;SDS011;14785;52.556;13.430;2024-02-26T08:57:49;30.40;;;26.30;;
27293;SDS011;14785;52.556;13.430;2024-02-26T09:00:16;38.33;;;27.98;;
27293;SDS011;14785;52.556;13.430;2024-02-26T09:02:45;33.78;;;26.30;;
27293;SDS011;14785;52.556;13.430;2024-02-26T09:05:10;30.33;;;26.57;;
27293;SDS011;14785;52.556;13.430;2024-02-26T09:07:36;36.07;;;30.13;;
27293;SDS011;14785;52.556;13.430;2024-02-26T09:10:01;33.00;;;26.17;;
27293;SDS011;14785;52.556;13.430;2024-02-26T09:12:27;33.05;;;26.80;;
27293;SDS011;14785;52.556;13.430;2024-02-26T09:14:52;31.53;;;26.27;;
27293;SDS011;14785;52.556;13.430;2024-02-26T09:17:18;33.47;;;28.87;;
27293;SDS011;14785;52.556;13.430;2024-02-26T09:22:09;39.30;;;28.03;;
27293;SDS011;14785;52.556;13.430;2024-02-26T09:24:35;34.30;;;30.03;;
27293;SDS011;14785;52.556;13.430;2024-02-26T09:27:02;37.35;;;30.52;;
27293;SDS011;14785;52.556;13.430;2024-02-26T09:29:29;35.70;;;29.73;;
27293;SDS011;14785;52.556;13.430;2024-02-26T09:31:54;35.78;;;29.30;;
27293;SDS011;14785;52.556;13.430;2024-02-26T09:34:20;33.57;;;29.07;;
27293;SDS011;14785;52.556;13.430;2024-02-26T09:36:45;36.50;;;32.67;;
27293;SDS011;14785;52.556;13.430;2024-02-26T09:39:10;32.40;;;27.13;;
27293;SDS011;14785;52.556;13.430;2024-02-26T09:41:36;33.57;;;28.40;;
27293;SDS011;14785;52.556;13.430;2024-02-26T09:44:02;36.70;;;29.60;;
27293;SDS011;14785;52.556;13.430;2024-02-26T09:46:30;34.30;;;28.90;;
27293;SDS011;14785;52.556;13.430;2024-02-26T09:48:55;36.33;;;30.40;;
27293;SDS011;14785;52.556;13.430;2024-02-26T09:51:22;33.45;;;28.95;;
27293;SDS011;14785;52.556;13.430;2024-02-26T09:53:51;34.65;;;27.60;;
27293;SDS011;14785;52.556;13.430;2024-02-26T09:56:17;30.63;;;26.60;;
27293;SDS011;14785;52.556;13.430;2024-02-26T09:58:42;23.13;;;20.63;;
27293;SDS011;14785;52.556;13.430;2024-02-26T10:01:11;34.53;;;30.20;;
27293;SDS011;14785;52.556;13.430;2024-02-26T10:03:44;35.38;;;26.40;;
27293;SDS011;14785;52.556;13.430;2024-02-26T10:06:14;39.83;;;35.67;;
27293;SDS011;14785;52.556;13.430;2024-02-26T10:08:41;31.95;;;28.63;;
27293;SDS011;14785;52.556;13.430;2024-02-26T10:11:08;36.88;;;29.98;;
27293;SDS011;14785;52.556;13.430;2024-02-26T10:13:35;47.22;;;34.33;;
27293;SDS011;14785;52.556;13.430;2024-02-26T10:16:02;33.08;;;26.30;;
27293;SDS011;14785;52.556;13.430;2024-02-26T10:18:51;32.28;;;28.85;;
27293;SDS011;14785;52.556;13.430;2024-02-26T10:21:22;35.42;;;29.63;;
27293;SDS011;14785;52.556;13.430;2024-02-26T10:23:48;29.17;;;24.50;;
27293;SDS011;14785;52.556;13.430;2024-02-26T10:26:15;30.00;;;24.10;;
27293;SDS011;14785;52.556;13.430;2024-02-26T10:28:42;28.98;;;24.73;;
27293;SDS011;14785;52.556;13.430;2024-02-26T10:31:09;32.65;;;23.48;;
27293;SDS011;14785;52.556;13.430;2024-02-26T10:33:38;27.77;;;19.98;;
27293;SDS011;14785;52.556;13.430;2024-02-26T10:36:05;22.95;;;18.42;;
27293;SDS011;14785;52.556;13.430;2024-02-26T10:38:32;26.08;;;20.02;;
27293;SDS011;14785;52.556;13.430;2024-02-26T10:43:28;21.25;;;17.95;;
27293;SDS011;14785;52.556;13.430;2024-02-26T10:45:56;22.80;;;19.63;;
27293;SDS011;14785;52.556;13.430;2024-02-26T10:48:23;22.23;;;19.27;;
27293;SDS011;14785;52.556;13.430;2024-02-26T10:50:48;24.15;;;20.95;;
27293;SDS011;14785;52.556;13.430;2024-02-26T10:53:16;20.48;;;17.48;;
27293;SDS011;14785;52.556;13.430;2024-02-26T10:55:48;18.73;;;16.38;;
27293;SDS011;14785;52.556;13.430;2024-02-26T10:58:31;26.92;;;20.50;;
27293;SDS011;14785;52.556;13.430;2024-02-26T11:00:56;27.02;;;20.25;;
27293;SDS011;14785;52.556;13.430;2024-02-26T11:03:24;22.10;;;18.77;;
27293;SDS011;14785;52.556;13.430;2024-02-26T11:08:16;21.92;;;16.75;;
27293;SDS011;14785;52.556;13.430;2024-02-26T11:10:50;19.98;;;17.55;;
27293;SDS011;14785;52.556;13.430;2024-02-26T11:13:21;24.35;;;19.65;;
27293;SDS011;14785;52.556;13.430;2024-02-26T11:15:47;21.55;;;19.13;;
27293;SDS011;14785;52.556;13.430;2024-02-26T11:18:15;20.52;;;17.08;;
27293;SDS011;14785;52.556;13.430;2024-02-26T11:20:44;22.27;;;17.45;;
27293;SDS011;14785;52.556;13.430;2024-02-26T11:23:11;21.77;;;17.92;;
27293;SDS011;14785;52.556;13.430;2024-02-26T11:25:37;20.88;;;18.75;;
27293;SDS011;14785;52.556;13.430;2024-02-26T11:28:05;20.73;;;16.75;;
27293;SDS011;14785;52.556;13.430;2024-02-26T11:30:34;20.38;;;17.55;;
27293;SDS011;14785;52.556;13.430;2024-02-26T11:33:04;19.48;;;16.48;;
27293;SDS011;14785;52.556;13.430;2024-02-26T11:35:36;25.13;;;17.65;;
27293;SDS011;14785;52.556;13.430;2024-02-26T11:38:01;25.08;;;20.17;;
27293;SDS011;14785;52.556;13.430;2024-02-26T11:40:28;23.33;;;18.55;;
27293;SDS011;14785;52.556;13.430;2024-02-26T11:42:56;22.85;;;19.67;;
27293;SDS011;14785;52.556;13.430;2024-02-26T11:48:13;24.90;;;20.38;;
27293;SDS011;14785;52.556;13.430;2024-02-26T11:50:41;23.80;;;20.55;;
27293;SDS011;14785;52.556;13.430;2024-02-26T11:53:30;24.25;;;19.38;;
27293;SDS011;14785;52.556;13.430;2024-02-26T11:56:12;24.10;;;18.90;;
27293;SDS011;14785;52.556;13.430;2024-02-26T11:58:40;23.48;;;19.30;;
27293;SDS011;14785;52.556;13.430;2024-02-26T12:01:35;22.25;;;19.73;;
27293;SDS011;14785;52.556;13.430;2024-02-26T12:04:01;26.63;;;21.05;;
27293;SDS011;14785;52.556;13.430;2024-02-26T12:06:27;29.17;;;22.40;;
27293;SDS011;14785;52.556;13.430;2024-02-26T12:08:55;26.33;;;21.15;;
27293;SDS011;14785;52.556;13.430;2024-02-26T12:11:21;24.60;;;18.92;;
27293;SDS011;14785;52.556;13.430;2024-02-26T12:13:47;24.93;;;19.90;;
27293;SDS011;14785;52.556;13.430;2024-02-26T12:16:35;21.90;;;18.98;;
27293;SDS011;14785;52.556;13.430;2024-02-26T12:19:05;23.05;;;18.88;;
27293;SDS011;14785;52.556;13.430;2024-02-26T12:21:35;24.25;;;19.55;;
27293;SDS011;14785;52.556;13.430;2024-02-26T12:24:12;25.73;;;20.08;;
27293;SDS011;14785;52.556;13.430;2024-02-26T12:29:05;25.67;;;18.20;;
27293;SDS011;14785;52.556;13.430;2024-02-26T12:31:31;21.10;;;18.02;;
27293;SDS011;14785;52.556;13.430;2024-02-26T12:33:57;18.98;;;16.83;;
27293;SDS011;14785;52.556;13.430;2024-02-26T12:36:23;20.30;;;15.20;;
27293;SDS011;14785;52.556;13.430;2024-02-26T12:41:18;17.92;;;15.18;;
27293;SDS011;14785;52.556;13.430;2024-02-26T12:43:43;16.63;;;14.93;;
27293;SDS011;14785;52.556;13.430;2024-02-26T12:46:09;19.70;;;17.60;;
27293;SDS011;14785;52.556;13.430;2024-02-26T12:48:36;15.10;;;13.50;;
27293;SDS011;14785;52.556;13.430;2024-02-26T12:51:02;17.17;;;13.07;;
27293;SDS011;14785;52.556;13.430;2024-02-26T12:53:27;23.65;;;14.18;;
27293;SDS011;14785;52.556;13.430;2024-02-26T12:55:54;16.03;;;11.87;;
27293;SDS011;14785;52.556;13.430;2024-02-26T12:58:20;17.95;;;12.68;;
27293;SDS011;14785;52.556;13.430;2024-02-26T13:00:49;16.00;;;13.30;;
27293;SDS011;14785;52.556;13.430;2024-02-26T13:03:18;14.85;;;13.07;;
27293;SDS011;14785;52.556;13.430;2024-02-26T13:05:44;18.98;;;14.00;;
27293;SDS011;14785;52.556;13.430;2024-02-26T13:08:17;15.77;;;12.13;;
27293;SDS011;14785;52.556;13.430;2024-02-26T13:10:43;13.00;;;11.60;;
27293;SDS011;14785;52.556;13.430;2024-02-26T13:13:08;15.80;;;12.03;;
27293;SDS011;14785;52.556;13.430;2024-02-26T13:15:34;11.33;;;10.27;;
27293;SDS011;14785;52.556;13.430;2024-02-26T13:17:59;13.30;;;11.90;;
27293;SDS011;14785;52.556;13.430;2024-02-26T13:20:35;13.93;;;11.15;;
27293;SDS011;14785;52.556;13.430;2024-02-26T13:23:04;14.38;;;12.95;;
27293;SDS011;14785;52.556;13.430;2024-02-26T13:25:31;17.02;;;12.43;;
27293;SDS011;14785;52.556;13.430;2024-02-26T13:30:38;12.27;;;11.05;;
27293;SDS011;14785;52.556;13.430;2024-02-26T13:33:14;13.53;;;12.23;;
27293;SDS011;14785;52.556;13.430;2024-02-26T13:35:40;11.32;;;10.23;;
27293;SDS011;14785;52.556;13.430;2024-02-26T13:38:06;10.90;;;9.80;;
27293;SDS011;14785;52.556;13.430;2024-02-26T13:40:32;13.80;;;11.83;;
27293;SDS011;14785;52.556;13.430;2024-02-26T13:42:57;14.18;;;12.85;;
27293;SDS011;14785;52.556;13.430;2024-02-26T13:45:23;10.60;;;9.43;;
27293;SDS011;14785;52.556;13.430;2024-02-26T13:47:48;14.33;;;10.70;;
27293;SDS011;14785;52.556;13.430;2024-02-26T13:50:14;16.33;;;13.70;;
27293;SDS011;14785;52.556;13.430;2024-02-26T13:52:39;12.77;;;11.57;;
27293;SDS011;14785;52.556;13.430;2024-02-26T13:55:04;15.60;;;11.60;;
27293;SDS011;14785;52.556;13.430;2024-02-26T13:57:30;14.52;;;12.57;;
27293;SDS011;14785;52.556;13.430;2024-02-26T13:59:56;12.40;;;10.60;;
27293;SDS011;14785;52.556;13.430;2024-02-26T14:02:21;13.67;;;10.53;;
27293;SDS011;14785;52.556;13.430;2024-02-26T14:04:47;14.67;;;11.20;;
27293;SDS011;14785;52.556;13.430;2024-02-26T14:07:12;13.77;;;12.00;;
27293;SDS011;14785;52.556;13.430;2024-02-26T14:09:38;12.18;;;10.02;;
27293;SDS011;14785;52.556;13.430;2024-02-26T14:12:03;13.27;;;11.97;;
27293;SDS011;14785;52.556;13.430;2024-02-26T14:14:29;15.60;;;13.13;;
27293;SDS011;14785;52.556;13.430;2024-02-26T14:16:58;13.73;;;12.30;;
27293;SDS011;14785;52.556;13.430;2024-02-26T14:19:23;15.63;;;12.73;;
27293;SDS011;14785;52.556;13.430;2024-02-26T14:21:49;15.57;;;12.83;;
27293;SDS011;14785;52.556;13.430;2024-02-26T14:24:14;13.33;;;11.30;;